sensor_id;sensor_type;location;lat;lon;timestamp;P1;durP1;ratioP1;P2;durP2;ratioP2
18280;SDS011;9266;51.132;17.062;2022-11-02T00:02:17;32.27;;;20.80;;
18280;SDS011;9266;51.132;17.062;2022-11-02T00:04:44;32.17;;;20.50;;
18280;SDS011;9266;51.132;17.062;2022-11-02T00:07:11;30.57;;;19.33;;
18280;SDS011;9266;51.132;17.062;2022-11-02T00:09:38;31.60;;;21.17;;
18280;SDS011;9266;51.132;17.062;2022-11-02T00:12:07;33.90;;;21.70;;
18280;SDS011;9266;51.132;17.062;2022-11-02T00:14:34;29.20;;;20.53;;
18280;SDS011;9266;51.132;17.062;2022-11-02T00:17:01;28.87;;;20.33;;
18280;SDS011;9266;51.132;17.062;2022-11-02T00:19:28;31.90;;;21.40;;
18280;SDS011;9266;51.132;17.062;2022-11-02T00:21:56;29.87;;;20.13;;
18280;SDS011;9266;51.132;17.062;2022-11-02T00:24:26;35.00;;;21.83;;
18280;SDS011;9266;51.132;17.062;2022-11-02T00:26:53;30.13;;;21.27;;
18280;SDS011;9266;51.132;17.062;2022-11-02T00:29:21;32.20;;;21.80;;
18280;SDS011;9266;51.132;17.062;2022-11-02T00:31:49;30.63;;;21.53;;
18280;SDS011;9266;51.132;17.062;2022-11-02T00:34:16;32.00;;;21.30;;
18280;SDS011;9266;51.132;17.062;2022-11-02T00:36:43;31.20;;;21.50;;
18280;SDS011;9266;51.132;17.062;2022-11-02T00:39:10;34.33;;;21.47;;
18280;SDS011;9266;51.132;17.062;2022-11-02T00:41:37;33.03;;;21.20;;
18280;SDS011;9266;51.132;17.062;2022-11-02T00:44:04;30.10;;;20.93;;
18280;SDS011;9266;51.132;17.062;2022-11-02T00:46:33;33.87;;;21.07;;
18280;SDS011;9266;51.132;17.062;2022-11-02T00:49:00;33.13;;;20.57;;
18280;SDS011;9266;51.132;17.062;2022-11-02T00:51:27;33.43;;;21.90;;
18280;SDS011;9266;51.132;17.062;2022-11-02T00:53:54;33.00;;;21.60;;
18280;SDS011;9266;51.132;17.062;2022-11-02T00:56:21;31.63;;;21.40;;
18280;SDS011;9266;51.132;17.062;2022-11-02T00:58:48;32.80;;;20.70;;
18280;SDS011;9266;51.132;17.062;2022-11-02T01:01:16;30.20;;;20.97;;
18280;SDS011;9266;51.132;17.062;2022-11-02T01:03:44;32.93;;;20.77;;
18280;SDS011;9266;51.132;17.062;2022-11-02T01:06:12;32.63;;;21.00;;
18280;SDS011;9266;51.132;17.062;2022-11-02T01:08:40;32.73;;;21.43;;
18280;SDS011;9266;51.132;17.062;2022-11-02T01:11:08;34.10;;;21.13;;
18280;SDS011;9266;51.132;17.062;2022-11-02T01:13:39;32.37;;;20.93;;
18280;SDS011;9266;51.132;17.062;2022-11-02T01:16:07;34.17;;;20.10;;
18280;SDS011;9266;51.132;17.062;2022-11-02T01:18:34;36.23;;;21.73;;
18280;SDS011;9266;51.132;17.062;2022-11-02T01:21:03;33.07;;;20.87;;
18280;SDS011;9266;51.132;17.062;2022-11-02T01:23:30;33.40;;;20.97;;
18280;SDS011;9266;51.132;17.062;2022-11-02T01:26:00;31.67;;;21.17;;
18280;SDS011;9266;51.132;17.062;2022-11-02T01:28:28;32.57;;;20.80;;
18280;SDS011;9266;51.132;17.062;2022-11-02T01:30:56;29.43;;;19.30;;
18280;SDS011;9266;51.132;17.062;2022-11-02T01:33:24;32.97;;;20.23;;
18280;SDS011;9266;51.132;17.062;2022-11-02T01:35:51;26.87;;;18.53;;
18280;SDS011;9266;51.132;17.062;2022-11-02T01:38:20;30.83;;;19.70;;
18280;SDS011;9266;51.132;17.062;2022-11-02T01:40:47;28.90;;;20.50;;
18280;SDS011;9266;51.132;17.062;2022-11-02T01:43:18;34.87;;;19.87;;
18280;SDS011;9266;51.132;17.062;2022-11-02T01:45:46;31.27;;;20.40;;
18280;SDS011;9266;51.132;17.062;2022-11-02T01:48:14;29.90;;;18.57;;
18280;SDS011;9266;51.132;17.062;2022-11-02T01:50:41;29.63;;;19.57;;
18280;SDS011;9266;51.132;17.062;2022-11-02T01:53:08;30.77;;;19.50;;
18280;SDS011;9266;51.132;17.062;2022-11-02T01:55:37;33.67;;;20.40;;
18280;SDS011;9266;51.132;17.062;2022-11-02T01:58:06;28.13;;;19.07;;
18280;SDS011;9266;51.132;17.062;2022-11-02T02:00:35;29.70;;;18.23;;
18280;SDS011;9266;51.132;17.062;2022-11-02T02:03:04;29.90;;;19.23;;
18280;SDS011;9266;51.132;17.062;2022-11-02T02:05:33;32.03;;;18.90;;
18280;SDS011;9266;51.132;17.062;2022-11-02T02:08:05;30.47;;;19.33;;
18280;SDS011;9266;51.132;17.062;2022-11-02T02:10:33;30.30;;;18.83;;
18280;SDS011;9266;51.132;17.062;2022-11-02T02:13:03;29.27;;;19.47;;
18280;SDS011;9266;51.132;17.062;2022-11-02T02:15:33;29.83;;;18.30;;
18280;SDS011;9266;51.132;17.062;2022-11-02T02:18:08;27.93;;;18.27;;
18280;SDS011;9266;51.132;17.062;2022-11-02T02:20:46;31.10;;;19.13;;
18280;SDS011;9266;51.132;17.062;2022-11-02T02:26:44;26.77;;;17.30;;
18280;SDS011;9266;51.132;17.062;2022-11-02T02:29:30;32.70;;;19.60;;
18280;SDS011;9266;51.132;17.062;2022-11-02T02:32:08;33.97;;;19.37;;
18280;SDS011;9266;51.132;17.062;2022-11-02T02:34:43;28.83;;;18.63;;
18280;SDS011;9266;51.132;17.062;2022-11-02T02:37:20;29.77;;;19.23;;
18280;SDS011;9266;51.132;17.062;2022-11-02T02:39:53;29.50;;;19.27;;
18280;SDS011;9266;51.132;17.062;2022-11-02T02:42:29;28.70;;;18.40;;
18280;SDS011;9266;51.132;17.062;2022-11-02T02:45:03;29.87;;;18.73;;
18280;SDS011;9266;51.132;17.062;2022-11-02T02:47:38;27.83;;;18.40;;
18280;SDS011;9266;51.132;17.062;2022-11-02T02:50:10;28.97;;;19.67;;
18280;SDS011;9266;51.132;17.062;2022-11-02T02:52:41;28.73;;;18.03;;
18280;SDS011;9266;51.132;17.062;2022-11-02T02:55:12;28.00;;;18.97;;
18280;SDS011;9266;51.132;17.062;2022-11-02T02:57:43;26.20;;;17.80;;
18280;SDS011;9266;51.132;17.062;2022-11-02T03:00:14;27.80;;;17.80;;
18280;SDS011;9266;51.132;17.062;2022-11-02T03:02:43;27.70;;;18.27;;
18280;SDS011;9266;51.132;17.062;2022-11-02T03:05:25;27.73;;;17.50;;
18280;SDS011;9266;51.132;17.062;2022-11-02T03:07:54;29.93;;;17.67;;
18280;SDS011;9266;51.132;17.062;2022-11-02T03:10:27;28.10;;;18.03;;
18280;SDS011;9266;51.132;17.062;2022-11-02T03:13:00;28.43;;;17.40;;
18280;SDS011;9266;51.132;17.062;2022-11-02T03:15:37;29.00;;;17.20;;
18280;SDS011;9266;51.132;17.062;2022-11-02T03:18:10;26.13;;;17.43;;
18280;SDS011;9266;51.132;17.062;2022-11-02T03:20:47;24.90;;;16.90;;
18280;SDS011;9266;51.132;17.062;2022-11-02T03:23:23;27.60;;;17.53;;
18280;SDS011;9266;51.132;17.062;2022-11-02T03:25:55;26.87;;;18.47;;
18280;SDS011;9266;51.132;17.062;2022-11-02T03:28:31;22.80;;;16.43;;
18280;SDS011;9266;51.132;17.062;2022-11-02T03:31:10;21.77;;;16.17;;
18280;SDS011;9266;51.132;17.062;2022-11-02T03:33:43;25.17;;;16.07;;
18280;SDS011;9266;51.132;17.062;2022-11-02T03:36:14;24.80;;;16.30;;
18280;SDS011;9266;51.132;17.062;2022-11-02T03:38:46;23.33;;;16.53;;
18280;SDS011;9266;51.132;17.062;2022-11-02T03:41:17;28.63;;;18.23;;
18280;SDS011;9266;51.132;17.062;2022-11-02T03:43:47;27.17;;;16.17;;
18280;SDS011;9266;51.132;17.062;2022-11-02T03:46:20;28.47;;;17.27;;
18280;SDS011;9266;51.132;17.062;2022-11-02T03:48:48;24.53;;;16.67;;
18280;SDS011;9266;51.132;17.062;2022-11-02T03:51:18;22.77;;;15.50;;
18280;SDS011;9266;51.132;17.062;2022-11-02T03:53:49;22.93;;;16.17;;
18280;SDS011;9266;51.132;17.062;2022-11-02T03:56:21;24.57;;;16.37;;
18280;SDS011;9266;51.132;17.062;2022-11-02T03:58:51;25.07;;;17.73;;
18280;SDS011;9266;51.132;17.062;2022-11-02T04:01:19;27.47;;;18.00;;
18280;SDS011;9266;51.132;17.062;2022-11-02T04:03:48;24.37;;;17.37;;
18280;SDS011;9266;51.132;17.062;2022-11-02T04:06:15;25.67;;;17.97;;
18280;SDS011;9266;51.132;17.062;2022-11-02T04:08:42;25.63;;;17.40;;
18280;SDS011;9266;51.132;17.062;2022-11-02T04:11:12;26.90;;;18.00;;
18280;SDS011;9266;51.132;17.062;2022-11-02T04:13:59;23.30;;;15.80;;
18280;SDS011;9266;51.132;17.062;2022-11-02T04:16:48;29.33;;;16.53;;
18280;SDS011;9266;51.132;17.062;2022-11-02T04:19:35;24.60;;;15.97;;
18280;SDS011;9266;51.132;17.062;2022-11-02T04:22:01;25.40;;;16.33;;
18280;SDS011;9266;51.132;17.062;2022-11-02T04:24:46;24.13;;;15.67;;
18280;SDS011;9266;51.132;17.062;2022-11-02T04:27:31;23.17;;;16.17;;
18280;SDS011;9266;51.132;17.062;2022-11-02T04:29:58;26.93;;;16.60;;
18280;SDS011;9266;51.132;17.062;2022-11-02T04:32:27;24.33;;;17.43;;
18280;SDS011;9266;51.132;17.062;2022-11-02T04:35:11;22.57;;;16.70;;
18280;SDS011;9266;51.132;17.062;2022-11-02T04:37:38;25.23;;;16.83;;
18280;SDS011;9266;51.132;17.062;2022-11-02T04:40:23;25.70;;;16.90;;
18280;SDS011;9266;51.132;17.062;2022-11-02T04:42:50;27.27;;;16.57;;
18280;SDS011;9266;51.132;17.062;2022-11-02T04:45:18;26.67;;;16.57;;
18280;SDS011;9266;51.132;17.062;2022-11-02T04:47:46;30.23;;;17.80;;
18280;SDS011;9266;51.132;17.062;2022-11-02T04:50:13;26.03;;;16.17;;
18280;SDS011;9266;51.132;17.062;2022-11-02T04:52:40;23.80;;;16.93;;
18280;SDS011;9266;51.132;17.062;2022-11-02T04:55:08;29.17;;;17.97;;
18280;SDS011;9266;51.132;17.062;2022-11-02T04:57:35;25.60;;;17.57;;
18280;SDS011;9266;51.132;17.062;2022-11-02T05:00:02;25.40;;;17.10;;
18280;SDS011;9266;51.132;17.062;2022-11-02T05:02:31;29.50;;;17.23;;
18280;SDS011;9266;51.132;17.062;2022-11-02T05:05:00;24.77;;;17.27;;
18280;SDS011;9266;51.132;17.062;2022-11-02T05:07:27;25.50;;;17.00;;
18280;SDS011;9266;51.132;17.062;2022-11-02T05:09:54;28.43;;;17.77;;
18280;SDS011;9266;51.132;17.062;2022-11-02T05:12:21;30.83;;;17.80;;
18280;SDS011;9266;51.132;17.062;2022-11-02T05:14:48;31.70;;;18.10;;
18280;SDS011;9266;51.132;17.062;2022-11-02T05:17:15;27.37;;;18.07;;
18280;SDS011;9266;51.132;17.062;2022-11-02T05:19:42;24.33;;;17.73;;
18280;SDS011;9266;51.132;17.062;2022-11-02T05:22:11;29.17;;;18.50;;
18280;SDS011;9266;51.132;17.062;2022-11-02T05:24:38;30.03;;;18.67;;
18280;SDS011;9266;51.132;17.062;2022-11-02T05:27:05;25.47;;;17.70;;
18280;SDS011;9266;51.132;17.062;2022-11-02T05:29:32;29.73;;;17.77;;
18280;SDS011;9266;51.132;17.062;2022-11-02T05:31:59;25.43;;;17.63;;
18280;SDS011;9266;51.132;17.062;2022-11-02T07:52:11;20.10;;;11.93;;
18280;SDS011;9266;51.132;17.062;2022-11-02T07:54:38;20.10;;;12.20;;
18280;SDS011;9266;51.132;17.062;2022-11-02T07:57:05;21.37;;;12.40;;
18280;SDS011;9266;51.132;17.062;2022-11-02T07:59:33;18.67;;;12.17;;
18280;SDS011;9266;51.132;17.062;2022-11-02T08:02:00;19.13;;;12.10;;
18280;SDS011;9266;51.132;17.062;2022-11-02T08:04:27;19.20;;;11.73;;
18280;SDS011;9266;51.132;17.062;2022-11-02T08:06:56;22.43;;;12.40;;
18280;SDS011;9266;51.132;17.062;2022-11-02T08:09:25;17.70;;;12.07;;
18280;SDS011;9266;51.132;17.062;2022-11-02T08:11:52;19.23;;;13.13;;
18280;SDS011;9266;51.132;17.062;2022-11-02T08:14:21;20.33;;;12.47;;
18280;SDS011;9266;51.132;17.062;2022-11-02T08:16:50;19.53;;;12.47;;
18280;SDS011;9266;51.132;17.062;2022-11-02T08:19:17;16.53;;;11.70;;
18280;SDS011;9266;51.132;17.062;2022-11-02T08:21:44;19.13;;;12.03;;
18280;SDS011;9266;51.132;17.062;2022-11-02T08:24:11;20.23;;;11.83;;
18280;SDS011;9266;51.132;17.062;2022-11-02T08:26:40;18.93;;;12.37;;
18280;SDS011;9266;51.132;17.062;2022-11-02T08:29:07;17.97;;;11.53;;
18280;SDS011;9266;51.132;17.062;2022-11-02T08:31:34;20.67;;;12.13;;
18280;SDS011;9266;51.132;17.062;2022-11-02T08:34:01;16.47;;;12.30;;
18280;SDS011;9266;51.132;17.062;2022-11-02T08:36:28;17.90;;;10.50;;
18280;SDS011;9266;51.132;17.062;2022-11-02T08:38:56;16.60;;;9.63;;
18280;SDS011;9266;51.132;17.062;2022-11-02T08:41:23;13.30;;;9.13;;
18280;SDS011;9266;51.132;17.062;2022-11-02T08:43:51;16.60;;;8.83;;
18280;SDS011;9266;51.132;17.062;2022-11-02T08:46:18;13.37;;;8.67;;
18280;SDS011;9266;51.132;17.062;2022-11-02T08:48:45;11.60;;;7.93;;
18280;SDS011;9266;51.132;17.062;2022-11-02T08:51:13;11.60;;;8.13;;
18280;SDS011;9266;51.132;17.062;2022-11-02T08:53:40;12.57;;;7.73;;
18280;SDS011;9266;51.132;17.062;2022-11-02T08:56:07;11.03;;;7.03;;
18280;SDS011;9266;51.132;17.062;2022-11-02T08:58:34;8.23;;;6.53;;
18280;SDS011;9266;51.132;17.062;2022-11-02T09:01:03;9.67;;;6.30;;
18280;SDS011;9266;51.132;17.062;2022-11-02T09:03:30;11.23;;;6.63;;
18280;SDS011;9266;51.132;17.062;2022-11-02T09:05:58;11.70;;;6.50;;
18280;SDS011;9266;51.132;17.062;2022-11-02T09:08:26;9.57;;;5.70;;
18280;SDS011;9266;51.132;17.062;2022-11-02T09:10:57;10.07;;;6.20;;
18280;SDS011;9266;51.132;17.062;2022-11-02T09:13:25;12.20;;;7.37;;
18280;SDS011;9266;51.132;17.062;2022-11-02T09:15:53;10.93;;;6.27;;
18280;SDS011;9266;51.132;17.062;2022-11-02T09:18:23;9.90;;;5.63;;
18280;SDS011;9266;51.132;17.062;2022-11-02T09:20:50;9.13;;;5.93;;
18280;SDS011;9266;51.132;17.062;2022-11-02T09:23:19;10.07;;;7.23;;
18280;SDS011;9266;51.132;17.062;2022-11-02T09:25:47;8.07;;;5.33;;
18280;SDS011;9266;51.132;17.062;2022-11-02T09:28:14;9.97;;;5.63;;
18280;SDS011;9266;51.132;17.062;2022-11-02T09:30:42;8.13;;;4.80;;
18280;SDS011;9266;51.132;17.062;2022-11-02T09:33:09;9.90;;;4.53;;
18280;SDS011;9266;51.132;17.062;2022-11-02T09:35:39;10.10;;;5.23;;
18280;SDS011;9266;51.132;17.062;2022-11-02T09:38:07;9.70;;;4.70;;
18280;SDS011;9266;51.132;17.062;2022-11-02T09:40:35;6.93;;;5.00;;
18280;SDS011;9266;51.132;17.062;2022-11-02T09:43:05;10.37;;;5.20;;
18280;SDS011;9266;51.132;17.062;2022-11-02T09:45:40;8.83;;;4.50;;
18280;SDS011;9266;51.132;17.062;2022-11-02T09:48:15;8.77;;;4.87;;
18280;SDS011;9266;51.132;17.062;2022-11-02T09:50:47;11.00;;;4.77;;
18280;SDS011;9266;51.132;17.062;2022-11-02T09:53:17;6.70;;;4.50;;
18280;SDS011;9266;51.132;17.062;2022-11-02T09:55:50;7.40;;;4.67;;
18280;SDS011;9266;51.132;17.062;2022-11-02T09:58:20;8.37;;;5.70;;
18280;SDS011;9266;51.132;17.062;2022-11-02T10:00:56;10.87;;;8.07;;
18280;SDS011;9266;51.132;17.062;2022-11-02T10:03:34;8.87;;;4.97;;
18280;SDS011;9266;51.132;17.062;2022-11-02T10:06:11;8.20;;;4.30;;
18280;SDS011;9266;51.132;17.062;2022-11-02T10:08:44;7.13;;;4.03;;
18280;SDS011;9266;51.132;17.062;2022-11-02T10:11:19;7.27;;;3.80;;
18280;SDS011;9266;51.132;17.062;2022-11-02T10:13:59;7.20;;;4.00;;
18280;SDS011;9266;51.132;17.062;2022-11-02T10:16:32;10.07;;;4.33;;
18280;SDS011;9266;51.132;17.062;2022-11-02T10:19:02;7.30;;;4.13;;
18280;SDS011;9266;51.132;17.062;2022-11-02T10:21:35;6.83;;;3.70;;
18280;SDS011;9266;51.132;17.062;2022-11-02T10:24:08;7.13;;;3.70;;
18280;SDS011;9266;51.132;17.062;2022-11-02T10:26:41;6.33;;;3.90;;
18280;SDS011;9266;51.132;17.062;2022-11-02T10:29:11;7.90;;;3.77;;
18280;SDS011;9266;51.132;17.062;2022-11-02T10:31:43;6.27;;;3.77;;
18280;SDS011;9266;51.132;17.062;2022-11-02T10:34:16;8.50;;;3.67;;
18280;SDS011;9266;51.132;17.062;2022-11-02T10:36:54;6.60;;;3.70;;
18280;SDS011;9266;51.132;17.062;2022-11-02T10:39:33;6.33;;;3.50;;
18280;SDS011;9266;51.132;17.062;2022-11-02T10:45:01;8.07;;;3.73;;
18280;SDS011;9266;51.132;17.062;2022-11-02T10:47:40;9.50;;;4.10;;
18280;SDS011;9266;51.132;17.062;2022-11-02T10:50:24;7.30;;;4.00;;
18280;SDS011;9266;51.132;17.062;2022-11-02T10:53:01;8.63;;;3.83;;
18280;SDS011;9266;51.132;17.062;2022-11-02T10:55:35;9.23;;;3.90;;
18280;SDS011;9266;51.132;17.062;2022-11-02T10:58:08;6.97;;;3.93;;
18280;SDS011;9266;51.132;17.062;2022-11-02T11:00:42;8.67;;;3.57;;
18280;SDS011;9266;51.132;17.062;2022-11-02T11:03:12;5.57;;;3.40;;
18280;SDS011;9266;51.132;17.062;2022-11-02T11:08:36;7.60;;;3.43;;
18280;SDS011;9266;51.132;17.062;2022-11-02T11:11:09;8.00;;;3.97;;
18280;SDS011;9266;51.132;17.062;2022-11-02T11:13:39;5.70;;;3.23;;
18280;SDS011;9266;51.132;17.062;2022-11-02T11:16:08;6.60;;;3.33;;
18280;SDS011;9266;51.132;17.062;2022-11-02T11:18:36;8.70;;;3.60;;
18280;SDS011;9266;51.132;17.062;2022-11-02T11:21:04;8.70;;;3.87;;
18280;SDS011;9266;51.132;17.062;2022-11-02T11:23:32;8.83;;;3.63;;
18280;SDS011;9266;51.132;17.062;2022-11-02T11:26:02;9.90;;;3.90;;
18280;SDS011;9266;51.132;17.062;2022-11-02T11:28:31;6.27;;;3.70;;
18280;SDS011;9266;51.132;17.062;2022-11-02T11:31:05;6.47;;;3.40;;
18280;SDS011;9266;51.132;17.062;2022-11-02T11:33:42;7.50;;;3.70;;
18280;SDS011;9266;51.132;17.062;2022-11-02T11:36:18;6.30;;;3.53;;
18280;SDS011;9266;51.132;17.062;2022-11-02T11:38:49;11.07;;;4.93;;
18280;SDS011;9266;51.132;17.062;2022-11-02T11:41:19;6.07;;;3.70;;
18280;SDS011;9266;51.132;17.062;2022-11-02T11:43:47;5.47;;;3.53;;
18280;SDS011;9266;51.132;17.062;2022-11-02T11:46:15;5.43;;;3.07;;
18280;SDS011;9266;51.132;17.062;2022-11-02T11:48:47;6.57;;;3.73;;
18280;SDS011;9266;51.132;17.062;2022-11-02T11:51:26;5.83;;;3.30;;
18280;SDS011;9266;51.132;17.062;2022-11-02T11:54:13;8.97;;;4.13;;
18280;SDS011;9266;51.132;17.062;2022-11-02T11:56:46;7.17;;;3.70;;
18280;SDS011;9266;51.132;17.062;2022-11-02T11:59:19;6.47;;;3.20;;
18280;SDS011;9266;51.132;17.062;2022-11-02T12:01:49;9.60;;;3.83;;
18280;SDS011;9266;51.132;17.062;2022-11-02T12:04:25;8.33;;;3.70;;
18280;SDS011;9266;51.132;17.062;2022-11-02T12:06:57;7.77;;;3.80;;
18280;SDS011;9266;51.132;17.062;2022-11-02T12:09:38;6.80;;;3.70;;
18280;SDS011;9266;51.132;17.062;2022-11-02T12:12:13;7.33;;;3.60;;
18280;SDS011;9266;51.132;17.062;2022-11-02T12:14:50;8.63;;;3.80;;
18280;SDS011;9266;51.132;17.062;2022-11-02T12:17:27;9.17;;;3.57;;
18280;SDS011;9266;51.132;17.062;2022-11-02T12:20:05;8.00;;;3.63;;
18280;SDS011;9266;51.132;17.062;2022-11-02T12:23:03;8.47;;;4.13;;
18280;SDS011;9266;51.132;17.062;2022-11-02T12:25:43;6.40;;;3.63;;
18280;SDS011;9266;51.132;17.062;2022-11-02T12:28:35;8.47;;;4.30;;
18280;SDS011;9266;51.132;17.062;2022-11-02T12:31:24;6.93;;;3.63;;
18280;SDS011;9266;51.132;17.062;2022-11-02T12:37:21;9.50;;;4.53;;
18280;SDS011;9266;51.132;17.062;2022-11-02T12:40:01;6.53;;;4.03;;
18280;SDS011;9266;51.132;17.062;2022-11-02T12:42:45;6.13;;;3.67;;
18280;SDS011;9266;51.132;17.062;2022-11-02T12:45:24;9.37;;;4.00;;
18280;SDS011;9266;51.132;17.062;2022-11-02T12:48:07;7.60;;;4.03;;
18280;SDS011;9266;51.132;17.062;2022-11-02T12:50:45;7.53;;;3.60;;
18280;SDS011;9266;51.132;17.062;2022-11-02T12:53:26;9.37;;;3.93;;
18280;SDS011;9266;51.132;17.062;2022-11-02T12:56:02;6.60;;;3.40;;
18280;SDS011;9266;51.132;17.062;2022-11-02T12:58:33;7.27;;;3.43;;
18280;SDS011;9266;51.132;17.062;2022-11-02T13:01:06;7.33;;;3.60;;
18280;SDS011;9266;51.132;17.062;2022-11-02T13:03:38;4.77;;;3.23;;
18280;SDS011;9266;51.132;17.062;2022-11-02T13:06:12;8.10;;;3.70;;
18280;SDS011;9266;51.132;17.062;2022-11-02T13:08:45;5.70;;;3.40;;
18280;SDS011;9266;51.132;17.062;2022-11-02T13:11:18;5.93;;;3.43;;
18280;SDS011;9266;51.132;17.062;2022-11-02T13:13:51;7.73;;;3.60;;
18280;SDS011;9266;51.132;17.062;2022-11-02T13:16:23;8.27;;;4.00;;
18280;SDS011;9266;51.132;17.062;2022-11-02T13:18:57;7.73;;;3.80;;
18280;SDS011;9266;51.132;17.062;2022-11-02T13:21:29;5.53;;;3.37;;
18280;SDS011;9266;51.132;17.062;2022-11-02T13:24:01;6.67;;;3.53;;
18280;SDS011;9266;51.132;17.062;2022-11-02T13:26:31;8.63;;;2.93;;
18280;SDS011;9266;51.132;17.062;2022-11-02T13:29:03;8.63;;;2.93;;
18280;SDS011;9266;51.132;17.062;2022-11-02T13:31:40;7.37;;;2.70;;
18280;SDS011;9266;51.132;17.062;2022-11-02T13:34:11;7.07;;;3.27;;
18280;SDS011;9266;51.132;17.062;2022-11-02T13:36:43;9.87;;;3.50;;
18280;SDS011;9266;51.132;17.062;2022-11-02T13:39:12;6.33;;;3.23;;
18280;SDS011;9266;51.132;17.062;2022-11-02T13:51:02;8.83;;;4.10;;
18280;SDS011;9266;51.132;17.062;2022-11-02T13:53:34;7.70;;;4.17;;
18280;SDS011;9266;51.132;17.062;2022-11-02T13:56:04;10.23;;;3.60;;
18280;SDS011;9266;51.132;17.062;2022-11-02T13:58:35;7.63;;;3.93;;
18280;SDS011;9266;51.132;17.062;2022-11-02T14:01:07;7.63;;;3.67;;
18280;SDS011;9266;51.132;17.062;2022-11-02T14:03:44;6.10;;;3.63;;
18280;SDS011;9266;51.132;17.062;2022-11-02T14:06:15;7.40;;;3.70;;
18280;SDS011;9266;51.132;17.062;2022-11-02T14:08:46;9.70;;;4.00;;
18280;SDS011;9266;51.132;17.062;2022-11-02T14:11:25;9.53;;;4.37;;
18280;SDS011;9266;51.132;17.062;2022-11-02T14:14:15;10.30;;;6.00;;
18280;SDS011;9266;51.132;17.062;2022-11-02T14:16:45;9.03;;;4.47;;
18280;SDS011;9266;51.132;17.062;2022-11-02T14:26:00;9.83;;;3.73;;
18280;SDS011;9266;51.132;17.062;2022-11-02T14:28:31;9.57;;;3.90;;
18280;SDS011;9266;51.132;17.062;2022-11-02T14:34:12;5.80;;;3.53;;
18280;SDS011;9266;51.132;17.062;2022-11-02T14:37:03;8.03;;;4.27;;
18280;SDS011;9266;51.132;17.062;2022-11-02T14:39:46;10.60;;;3.50;;
18280;SDS011;9266;51.132;17.062;2022-11-02T14:42:24;7.60;;;3.43;;
18280;SDS011;9266;51.132;17.062;2022-11-02T14:45:04;8.43;;;3.50;;
18280;SDS011;9266;51.132;17.062;2022-11-02T14:47:53;7.37;;;3.60;;
18280;SDS011;9266;51.132;17.062;2022-11-02T14:50:23;8.30;;;4.23;;
18280;SDS011;9266;51.132;17.062;2022-11-02T14:52:54;7.87;;;3.20;;
18280;SDS011;9266;51.132;17.062;2022-11-02T14:55:26;6.50;;;3.40;;
18280;SDS011;9266;51.132;17.062;2022-11-02T14:57:55;6.50;;;3.33;;
18280;SDS011;9266;51.132;17.062;2022-11-02T15:00:28;7.07;;;4.00;;
18280;SDS011;9266;51.132;17.062;2022-11-02T15:03:00;7.23;;;3.53;;
18280;SDS011;9266;51.132;17.062;2022-11-02T15:05:30;6.03;;;3.67;;
18280;SDS011;9266;51.132;17.062;2022-11-02T15:08:02;5.27;;;3.47;;
18280;SDS011;9266;51.132;17.062;2022-11-02T15:10:36;5.93;;;3.50;;
18280;SDS011;9266;51.132;17.062;2022-11-02T15:18:48;8.73;;;3.57;;
18280;SDS011;9266;51.132;17.062;2022-11-02T15:21:25;11.07;;;4.40;;
18280;SDS011;9266;51.132;17.062;2022-11-02T15:24:02;9.67;;;4.10;;
18280;SDS011;9266;51.132;17.062;2022-11-02T15:26:39;8.70;;;4.50;;
18280;SDS011;9266;51.132;17.062;2022-11-02T15:29:25;6.10;;;3.93;;
18280;SDS011;9266;51.132;17.062;2022-11-02T15:32:00;10.50;;;4.03;;
18280;SDS011;9266;51.132;17.062;2022-11-02T15:34:32;6.10;;;4.10;;
18280;SDS011;9266;51.132;17.062;2022-11-02T15:37:01;8.60;;;4.27;;
18280;SDS011;9266;51.132;17.062;2022-11-02T15:39:31;8.53;;;4.80;;
18280;SDS011;9266;51.132;17.062;2022-11-02T15:42:02;8.27;;;4.40;;
18280;SDS011;9266;51.132;17.062;2022-11-02T15:44:38;11.43;;;5.30;;
18280;SDS011;9266;51.132;17.062;2022-11-02T15:47:26;12.97;;;5.67;;
18280;SDS011;9266;51.132;17.062;2022-11-02T15:53:04;9.93;;;4.93;;
18280;SDS011;9266;51.132;17.062;2022-11-02T15:55:49;9.33;;;5.03;;
18280;SDS011;9266;51.132;17.062;2022-11-02T15:58:29;14.93;;;5.83;;
18280;SDS011;9266;51.132;17.062;2022-11-02T16:01:05;8.77;;;5.00;;
18280;SDS011;9266;51.132;17.062;2022-11-02T16:03:44;9.50;;;4.00;;
18280;SDS011;9266;51.132;17.062;2022-11-02T16:06:12;8.77;;;4.97;;
18280;SDS011;9266;51.132;17.062;2022-11-02T16:08:40;9.33;;;5.17;;
18280;SDS011;9266;51.132;17.062;2022-11-02T16:11:11;9.97;;;5.37;;
18280;SDS011;9266;51.132;17.062;2022-11-02T16:13:42;13.13;;;6.60;;
18280;SDS011;9266;51.132;17.062;2022-11-02T16:16:10;13.73;;;7.20;;
18280;SDS011;9266;51.132;17.062;2022-11-02T16:18:40;11.20;;;5.83;;
18280;SDS011;9266;51.132;17.062;2022-11-02T16:21:09;10.37;;;5.80;;
18280;SDS011;9266;51.132;17.062;2022-11-02T16:23:40;11.83;;;6.20;;
18280;SDS011;9266;51.132;17.062;2022-11-02T16:26:14;16.43;;;5.97;;
18280;SDS011;9266;51.132;17.062;2022-11-02T16:28:47;11.63;;;5.50;;
18280;SDS011;9266;51.132;17.062;2022-11-02T16:31:16;11.77;;;5.63;;
18280;SDS011;9266;51.132;17.062;2022-11-02T16:33:46;7.83;;;5.13;;
18280;SDS011;9266;51.132;17.062;2022-11-02T16:36:16;7.67;;;4.97;;
18280;SDS011;9266;51.132;17.062;2022-11-02T16:38:54;10.23;;;5.20;;
18280;SDS011;9266;51.132;17.062;2022-11-02T16:41:25;11.23;;;5.27;;
18280;SDS011;9266;51.132;17.062;2022-11-02T16:43:54;8.33;;;5.07;;
18280;SDS011;9266;51.132;17.062;2022-11-02T16:46:27;9.13;;;4.93;;
18280;SDS011;9266;51.132;17.062;2022-11-02T16:49:00;8.37;;;5.40;;
18280;SDS011;9266;51.132;17.062;2022-11-02T16:51:48;9.70;;;5.13;;
18280;SDS011;9266;51.132;17.062;2022-11-02T16:54:23;11.83;;;6.17;;
18280;SDS011;9266;51.132;17.062;2022-11-02T16:56:58;10.50;;;5.73;;
18280;SDS011;9266;51.132;17.062;2022-11-02T16:59:28;9.87;;;5.80;;
18280;SDS011;9266;51.132;17.062;2022-11-02T17:01:58;10.23;;;5.90;;
18280;SDS011;9266;51.132;17.062;2022-11-02T17:04:28;10.07;;;5.33;;
18280;SDS011;9266;51.132;17.062;2022-11-02T17:06:58;10.13;;;5.60;;
18280;SDS011;9266;51.132;17.062;2022-11-02T17:09:39;8.27;;;5.23;;
18280;SDS011;9266;51.132;17.062;2022-11-02T17:12:08;12.57;;;5.73;;
18280;SDS011;9266;51.132;17.062;2022-11-02T17:14:40;11.33;;;5.77;;
18280;SDS011;9266;51.132;17.062;2022-11-02T17:17:26;12.07;;;6.90;;
18280;SDS011;9266;51.132;17.062;2022-11-02T17:20:05;15.10;;;8.40;;
18280;SDS011;9266;51.132;17.062;2022-11-02T17:22:47;11.33;;;6.30;;
18280;SDS011;9266;51.132;17.062;2022-11-02T17:25:20;12.67;;;6.27;;
18280;SDS011;9266;51.132;17.062;2022-11-02T17:27:50;11.80;;;6.83;;
18280;SDS011;9266;51.132;17.062;2022-11-02T17:33:21;12.37;;;6.63;;
18280;SDS011;9266;51.132;17.062;2022-11-02T17:35:50;14.37;;;6.57;;
18280;SDS011;9266;51.132;17.062;2022-11-02T17:38:19;13.73;;;6.97;;
18280;SDS011;9266;51.132;17.062;2022-11-02T17:40:48;14.97;;;7.73;;
18280;SDS011;9266;51.132;17.062;2022-11-02T17:43:18;16.37;;;6.63;;
18280;SDS011;9266;51.132;17.062;2022-11-02T17:45:45;12.00;;;6.53;;
18280;SDS011;9266;51.132;17.062;2022-11-02T17:48:18;12.33;;;6.87;;
18280;SDS011;9266;51.132;17.062;2022-11-02T17:50:45;12.63;;;6.83;;
18280;SDS011;9266;51.132;17.062;2022-11-02T17:53:12;12.40;;;6.87;;
18280;SDS011;9266;51.132;17.062;2022-11-02T17:55:40;14.80;;;7.50;;
18280;SDS011;9266;51.132;17.062;2022-11-02T17:58:07;12.83;;;7.00;;
18280;SDS011;9266;51.132;17.062;2022-11-02T18:00:36;14.77;;;7.63;;
18280;SDS011;9266;51.132;17.062;2022-11-02T18:03:03;13.63;;;7.10;;